createdAt,value
2018-02-24T00:00:23.573Z,1018.90
2018-02-24T00:01:23.513Z,1018.92
2018-02-24T00:02:23.523Z,1018.92
2018-02-24T00:03:23.506Z,1018.96
2018-02-24T00:04:23.508Z,1018.93
2018-02-24T00:05:23.519Z,1018.99
2018-02-24T00:06:23.505Z,1018.91
2018-02-24T00:07:23.503Z,1018.93
2018-02-24T00:08:23.511Z,1018.92
2018-02-24T00:09:23.502Z,1018.96
2018-02-24T00:10:23.500Z,1018.91
2018-02-24T00:11:23.509Z,1018.92
2018-02-24T00:12:23.503Z,1018.96
2018-02-24T00:13:23.488Z,1018.98
2018-02-24T00:14:23.497Z,1018.95
2018-02-24T00:15:23.491Z,1018.96
2018-02-24T00:16:23.489Z,1018.93
2018-02-24T00:17:23.488Z,1018.98
2018-02-24T00:18:23.482Z,1018.95
2018-02-24T00:19:23.487Z,1018.96
2018-02-24T00:20:23.490Z,1018.98
2018-02-24T00:21:23.513Z,1018.91
2018-02-24T00:22:23.481Z,1018.91
2018-02-24T00:23:23.484Z,1018.93
2018-02-24T00:24:23.475Z,1018.90
2018-02-24T00:25:23.470Z,1018.92
2018-02-24T00:26:23.477Z,1018.91
2018-02-24T00:27:23.479Z,1018.93
2018-02-24T00:28:23.473Z,1018.91
2018-02-24T00:29:23.465Z,1018.92
2018-02-24T00:30:23.475Z,1018.90
2018-02-24T00:31:23.507Z,1018.98
2018-02-24T00:32:23.464Z,1018.96
2018-02-24T00:33:23.456Z,1018.98
2018-02-24T00:34:23.478Z,1018.99
2018-02-24T00:35:23.462Z,1018.97
2018-02-24T00:36:23.454Z,1018.97
2018-02-24T00:37:23.452Z,1018.95
2018-02-24T00:38:24.292Z,1018.94
2018-02-24T00:39:23.456Z,1018.95
2018-02-24T00:40:23.451Z,1018.98
2018-02-24T00:41:23.452Z,1018.93
2018-02-24T00:42:23.445Z,1018.98
2018-02-24T00:43:23.448Z,1018.94
2018-02-24T00:44:23.455Z,1018.98
2018-02-24T00:45:23.456Z,1018.93
2018-02-24T00:46:23.439Z,1018.96
2018-02-24T00:47:23.461Z,1018.99
2018-02-24T00:48:23.443Z,1019.00
2018-02-24T00:49:23.434Z,1019.02
2018-02-24T00:50:23.437Z,1018.98
2018-02-24T00:51:23.437Z,1018.99
2018-02-24T00:52:23.432Z,1019.04
2018-02-24T00:53:23.426Z,1019.03
2018-02-24T00:54:23.435Z,1018.99
2018-02-24T00:55:23.494Z,1018.97
2018-02-24T00:56:23.432Z,1018.97
2018-02-24T00:57:23.438Z,1018.96
2018-02-24T00:58:23.455Z,1019.01
2018-02-24T00:59:23.418Z,1019.02
2018-02-24T01:00:23.421Z,1018.96
2018-02-24T01:01:23.414Z,1018.97
2018-02-24T01:02:23.418Z,1018.97
2018-02-24T01:03:23.415Z,1018.98
2018-02-24T01:04:23.416Z,1019.02
2018-02-24T01:05:23.414Z,1019.00
2018-02-24T01:06:23.419Z,1018.99
2018-02-24T01:07:23.412Z,1019.00
2018-02-24T01:08:23.415Z,1018.99
2018-02-24T01:09:23.401Z,1018.95
2018-02-24T01:10:23.408Z,1018.94
2018-02-24T01:11:23.398Z,1018.98
2018-02-24T01:12:23.403Z,1018.98
2018-02-24T01:13:23.401Z,1018.97
2018-02-24T01:14:23.394Z,1018.96
2018-02-24T01:15:23.398Z,1018.98
2018-02-24T01:16:23.391Z,1018.94
2018-02-24T01:17:23.394Z,1018.93
2018-02-24T01:18:23.387Z,1018.95
2018-02-24T01:19:23.393Z,1019.01
2018-02-24T01:20:23.391Z,1018.97
2018-02-24T01:21:23.386Z,1018.96
2018-02-24T01:22:23.383Z,1018.93
2018-02-24T01:23:23.387Z,1018.93
2018-02-24T01:24:23.379Z,1018.93
2018-02-24T01:25:23.380Z,1018.95
2018-02-24T01:26:23.383Z,1018.89
2018-02-24T01:27:23.385Z,1018.93
2018-02-24T01:28:23.371Z,1018.92
2018-02-24T01:29:23.375Z,1018.87
2018-02-24T01:30:23.372Z,1018.92
2018-02-24T01:31:23.371Z,1018.93
2018-02-24T01:32:23.388Z,1018.94
2018-02-24T01:33:23.367Z,1018.88
2018-02-24T01:34:23.362Z,1018.91
2018-02-24T01:35:23.364Z,1018.96
2018-02-24T01:36:23.358Z,1018.88
2018-02-24T01:37:23.366Z,1018.89
2018-02-24T01:38:23.397Z,1018.88
2018-02-24T01:39:23.359Z,1018.92
2018-02-24T01:40:23.350Z,1018.89
2018-02-24T01:41:23.349Z,1018.98
2018-02-24T01:42:23.351Z,1018.94
2018-02-24T01:43:23.354Z,1018.90
2018-02-24T01:44:23.355Z,1018.89
2018-02-24T01:45:23.349Z,1018.93
2018-02-24T01:46:23.357Z,1018.99
2018-02-24T01:47:23.344Z,1019.05
2018-02-24T01:48:23.374Z,1019.01
2018-02-24T01:49:23.338Z,1019.00
2018-02-24T01:50:23.339Z,1019.01
2018-02-24T01:51:23.344Z,1018.98
2018-02-24T01:52:23.385Z,1019.02
2018-02-24T01:53:23.328Z,1019.00
2018-02-24T01:54:23.326Z,1018.97
2018-02-24T01:55:23.328Z,1019.01
2018-02-24T01:56:23.318Z,1018.96
2018-02-24T01:57:23.319Z,1018.97
2018-02-24T01:58:23.318Z,1019.02
2018-02-24T01:59:23.318Z,1019.03
2018-02-24T02:00:23.314Z,1019.06
2018-02-24T02:01:23.309Z,1019.05
2018-02-24T02:02:23.313Z,1019.03
2018-02-24T02:03:23.313Z,1019.08
2018-02-24T02:04:23.304Z,1019.08
2018-02-24T02:05:23.304Z,1019.10
2018-02-24T02:06:23.303Z,1019.08
2018-02-24T02:07:23.307Z,1019.05
2018-02-24T02:08:23.294Z,1019.04
2018-02-24T02:09:23.294Z,1019.07
2018-02-24T02:10:23.299Z,1019.04
2018-02-24T02:11:23.296Z,1019.07
2018-02-24T02:12:23.295Z,1019.05
2018-02-24T02:13:23.292Z,1019.06
2018-02-24T02:14:23.294Z,1019.01
2018-02-24T02:15:23.281Z,1019.10
2018-02-24T02:16:23.287Z,1019.02
2018-02-24T02:17:23.281Z,1019.00
2018-02-24T02:18:23.285Z,1019.04
2018-02-24T02:19:23.282Z,1019.04
2018-02-24T02:20:23.283Z,1019.04
2018-02-24T02:21:23.274Z,1019.03
2018-02-24T02:22:23.275Z,1019.05
2018-02-24T02:23:23.271Z,1019.12
2018-02-24T02:24:23.272Z,1018.99
2018-02-24T02:25:23.293Z,1019.03
2018-02-24T02:26:23.264Z,1019.02
2018-02-24T02:27:23.272Z,1019.04
2018-02-24T02:28:23.270Z,1019.07
2018-02-24T02:29:23.262Z,1019.06
2018-02-24T02:30:23.275Z,1019.06
2018-02-24T02:31:23.271Z,1019.01
2018-02-24T02:32:23.259Z,1019.07
2018-02-24T02:33:23.253Z,1019.04
2018-02-24T02:34:23.258Z,1019.06
2018-02-24T02:35:23.253Z,1019.02
2018-02-24T02:36:23.259Z,1019.03
2018-02-24T02:37:23.250Z,1019.03
2018-02-24T02:38:23.244Z,1019.08
2018-02-24T02:39:23.814Z,1019.02
2018-02-24T02:40:23.245Z,1018.97
2018-02-24T02:41:23.238Z,1019.03
2018-02-24T02:42:23.234Z,1019.02
2018-02-24T02:43:23.242Z,1019.03
2018-02-24T02:44:23.241Z,1019.03
2018-02-24T02:45:23.235Z,1019.02
2018-02-24T02:46:23.232Z,1019.02
2018-02-24T02:47:23.233Z,1019.08
2018-02-24T02:48:23.243Z,1019.01
2018-02-24T02:49:23.227Z,1019.03
2018-02-24T02:50:23.217Z,1019.03
2018-02-24T02:51:23.225Z,1019.02
2018-02-24T02:52:23.219Z,1019.04
2018-02-24T02:53:23.222Z,1018.99
2018-02-24T02:54:23.216Z,1018.98
2018-02-24T02:55:23.215Z,1019.02
2018-02-24T02:56:23.217Z,1019.01
2018-02-24T02:57:23.212Z,1019.00
2018-02-24T02:58:23.205Z,1019.00
2018-02-24T02:59:23.204Z,1019.01
2018-02-24T03:00:23.208Z,1019.02
2018-02-24T03:01:23.207Z,1019.03
2018-02-24T03:02:23.201Z,1019.02
2018-02-24T03:03:23.201Z,1019.01
2018-02-24T03:04:23.243Z,1019.01
2018-02-24T03:05:23.207Z,1019.05
2018-02-24T03:06:23.198Z,1019.03
2018-02-24T03:07:23.194Z,1019.09
2018-02-24T03:08:23.194Z,1019.05
2018-02-24T03:09:23.194Z,1019.10
2018-02-24T03:10:23.181Z,1019.09
2018-02-24T03:11:23.186Z,1019.10
2018-02-24T03:12:23.184Z,1019.14
2018-02-24T03:13:23.182Z,1019.18
2018-02-24T03:14:23.182Z,1019.16
2018-02-24T03:15:23.177Z,1019.20
2018-02-24T03:16:23.179Z,1019.14
2018-02-24T03:17:23.173Z,1019.19
2018-02-24T03:18:23.183Z,1019.20
2018-02-24T03:19:23.175Z,1019.22
2018-02-24T03:20:23.171Z,1019.25
2018-02-24T03:21:23.168Z,1019.20
2018-02-24T03:22:23.165Z,1019.24
2018-02-24T03:23:23.160Z,1019.24
2018-02-24T03:24:23.167Z,1019.29
2018-02-24T03:25:23.163Z,1019.28
2018-02-24T03:26:23.160Z,1019.32
2018-02-24T03:27:23.160Z,1019.30
2018-02-24T03:28:23.160Z,1019.31
2018-02-24T03:29:23.158Z,1019.30
2018-02-24T03:30:23.152Z,1019.29
2018-02-24T03:31:23.167Z,1019.32
2018-02-24T03:32:23.148Z,1019.33
2018-02-24T03:33:23.150Z,1019.34
2018-02-24T03:34:23.158Z,1019.37
2018-02-24T03:35:23.139Z,1019.36
2018-02-24T03:36:23.144Z,1019.35
2018-02-24T03:37:23.136Z,1019.40
2018-02-24T03:38:23.135Z,1019.38
2018-02-24T03:39:23.141Z,1019.38
2018-02-24T03:40:23.134Z,1019.39
2018-02-24T03:41:23.127Z,1019.41
2018-02-24T03:42:23.129Z,1019.41
2018-02-24T03:43:23.126Z,1019.41
2018-02-24T03:44:23.813Z,1019.39
2018-02-24T03:45:23.123Z,1019.43
2018-02-24T03:46:23.122Z,1019.40
2018-02-24T03:47:23.122Z,1019.43
2018-02-24T03:48:23.116Z,1019.43
2018-02-24T03:49:23.115Z,1019.38
2018-02-24T03:50:23.114Z,1019.46
2018-02-24T03:51:23.121Z,1019.46
2018-02-24T03:52:23.107Z,1019.44
2018-02-24T03:53:23.104Z,1019.47
2018-02-24T03:54:23.111Z,1019.45
2018-02-24T03:55:23.833Z,1019.44
2018-02-24T03:56:23.101Z,1019.49
2018-02-24T03:57:23.100Z,1019.50
2018-02-24T03:58:23.103Z,1019.43
2018-02-24T03:59:23.095Z,1019.47
2018-02-24T04:00:23.089Z,1019.45
2018-02-24T04:01:23.089Z,1019.49
2018-02-24T04:02:23.088Z,1019.43
2018-02-24T04:03:23.086Z,1019.44
2018-02-24T04:04:23.091Z,1019.39
2018-02-24T04:05:23.084Z,1019.40
2018-02-24T04:06:23.078Z,1019.43
2018-02-24T04:07:23.087Z,1019.46
2018-02-24T04:08:23.079Z,1019.45
2018-02-24T04:09:23.073Z,1019.44
2018-02-24T04:10:23.077Z,1019.45
2018-02-24T04:11:23.072Z,1019.48
2018-02-24T04:12:23.068Z,1019.52
2018-02-24T04:13:23.066Z,1019.50
2018-02-24T04:14:23.075Z,1019.45
2018-02-24T04:15:23.073Z,1019.51
2018-02-24T04:16:23.083Z,1019.57
2018-02-24T04:17:23.060Z,1019.56
2018-02-24T04:18:23.068Z,1019.57
2018-02-24T04:19:23.055Z,1019.59
2018-02-24T04:20:23.058Z,1019.63
2018-02-24T04:21:23.049Z,1019.63
2018-02-24T04:22:23.056Z,1019.70
2018-02-24T04:23:23.048Z,1019.69
2018-02-24T04:24:23.048Z,1019.67
2018-02-24T04:25:23.045Z,1019.71
2018-02-24T04:26:23.051Z,1019.68
2018-02-24T04:27:23.046Z,1019.74
2018-02-24T04:28:23.033Z,1019.76
2018-02-24T04:29:23.036Z,1019.72
2018-02-24T04:30:23.043Z,1019.76
2018-02-24T04:31:23.030Z,1019.75
2018-02-24T04:32:23.029Z,1019.72
2018-02-24T04:33:23.027Z,1019.75
2018-02-24T04:34:23.026Z,1019.74
2018-02-24T04:35:23.022Z,1019.70
2018-02-24T04:36:23.018Z,1019.75
2018-02-24T04:37:23.017Z,1019.79
2018-02-24T04:38:23.028Z,1019.75
2018-02-24T04:39:23.014Z,1019.80
2018-02-24T04:40:23.008Z,1019.81
2018-02-24T04:41:23.012Z,1019.81
2018-02-24T04:42:23.014Z,1019.80
2018-02-24T04:43:23.009Z,1019.81
2018-02-24T04:44:22.999Z,1019.82
2018-02-24T04:45:23.001Z,1019.86
2018-02-24T04:46:22.997Z,1019.86
2018-02-24T04:47:22.995Z,1019.91
2018-02-24T04:48:22.995Z,1019.89
2018-02-24T04:49:23.003Z,1019.89
2018-02-24T04:50:23.031Z,1019.88
2018-02-24T04:51:24.819Z,1019.94
2018-02-24T04:52:23.004Z,1019.93
2018-02-24T04:53:22.993Z,1019.96
2018-02-24T04:54:22.993Z,1019.97
2018-02-24T04:55:22.979Z,1019.97
2018-02-24T04:56:22.979Z,1019.98
2018-02-24T04:57:22.972Z,1020.02
2018-02-24T04:58:22.976Z,1019.98
2018-02-24T04:59:22.970Z,1020.00
2018-02-24T05:00:22.972Z,1019.96
2018-02-24T05:01:22.969Z,1020.01
2018-02-24T05:02:22.968Z,1019.99
2018-02-24T05:03:22.967Z,1019.97
2018-02-24T05:04:22.978Z,1020.02
2018-02-24T05:05:22.963Z,1019.99
2018-02-24T05:06:22.960Z,1019.99
2018-02-24T05:07:22.958Z,1020.00
2018-02-24T05:08:22.955Z,1020.00
2018-02-24T05:09:22.956Z,1020.04
2018-02-24T05:10:22.949Z,1020.05
2018-02-24T05:11:22.948Z,1020.05
2018-02-24T05:12:22.950Z,1020.03
2018-02-24T05:13:22.948Z,1020.04
2018-02-24T05:14:22.949Z,1020.05
2018-02-24T05:15:22.944Z,1020.06
2018-02-24T05:16:22.936Z,1020.06
2018-02-24T05:17:22.935Z,1020.09
2018-02-24T05:18:22.932Z,1020.11
2018-02-24T05:19:22.938Z,1020.12
2018-02-24T05:20:23.830Z,1020.17
2018-02-24T05:21:22.927Z,1020.17
2018-02-24T05:22:22.926Z,1020.13
2018-02-24T05:23:22.926Z,1020.17
2018-02-24T05:24:22.922Z,1020.16
2018-02-24T05:25:22.926Z,1020.18
2018-02-24T05:26:22.918Z,1020.23
2018-02-24T05:27:22.935Z,1020.17
2018-02-24T05:28:22.910Z,1020.23
2018-02-24T05:29:22.908Z,1020.26
2018-02-24T05:30:22.911Z,1020.24
2018-02-24T05:31:22.908Z,1020.24
2018-02-24T05:32:22.921Z,1020.25
2018-02-24T05:33:22.901Z,1020.22
2018-02-24T05:34:22.899Z,1020.26
2018-02-24T05:35:22.902Z,1020.25
2018-02-24T05:36:22.895Z,1020.28
2018-02-24T05:37:22.892Z,1020.25
2018-02-24T05:38:22.965Z,1020.27
2018-02-24T05:39:23.383Z,1020.28
2018-02-24T05:40:24.493Z,1020.28
2018-02-24T05:41:22.883Z,1020.28
2018-02-24T05:42:22.888Z,1020.27
2018-02-24T05:43:22.882Z,1020.31
2018-02-24T05:44:22.878Z,1020.28
2018-02-24T05:45:22.876Z,1020.30
2018-02-24T05:46:22.894Z,1020.30
2018-02-24T05:47:22.872Z,1020.38
2018-02-24T05:48:22.872Z,1020.34
2018-02-24T05:49:22.866Z,1020.36
2018-02-24T05:50:22.869Z,1020.36
2018-02-24T05:51:22.871Z,1020.41
2018-02-24T05:52:22.869Z,1020.39
2018-02-24T05:53:22.868Z,1020.44
2018-02-24T05:54:22.977Z,1020.41
2018-02-24T05:55:22.852Z,1020.42
2018-02-24T05:56:22.856Z,1020.45
2018-02-24T05:57:22.852Z,1020.42
2018-02-24T05:58:22.860Z,1020.43
2018-02-24T05:59:22.844Z,1020.46
2018-02-24T06:00:22.848Z,1020.43
2018-02-24T06:01:22.847Z,1020.43
2018-02-24T06:02:22.841Z,1020.46
2018-02-24T06:03:22.851Z,1020.46
2018-02-24T06:04:22.837Z,1020.50
2018-02-24T06:05:22.839Z,1020.51
2018-02-24T06:06:22.830Z,1020.51
2018-02-24T06:07:22.835Z,1020.57
2018-02-24T06:08:22.828Z,1020.56
2018-02-24T06:09:22.842Z,1020.61
2018-02-24T06:10:22.823Z,1020.61
2018-02-24T06:11:22.824Z,1020.58
2018-02-24T06:12:22.821Z,1020.58
2018-02-24T06:13:22.819Z,1020.62
2018-02-24T06:14:22.841Z,1020.58
2018-02-24T06:15:22.819Z,1020.59
2018-02-24T06:16:22.812Z,1020.63
2018-02-24T06:17:22.807Z,1020.61
2018-02-24T06:18:22.809Z,1020.65
2018-02-24T06:19:22.809Z,1020.61
2018-02-24T06:20:22.803Z,1020.68
2018-02-24T06:21:22.832Z,1020.70
2018-02-24T06:22:22.799Z,1020.66
2018-02-24T06:23:22.797Z,1020.68
2018-02-24T06:24:22.787Z,1020.71
2018-02-24T06:25:22.791Z,1020.67
2018-02-24T06:26:22.804Z,1020.73
2018-02-24T06:27:22.788Z,1020.75
2018-02-24T06:28:22.779Z,1020.73
2018-02-24T06:29:22.783Z,1020.67
2018-02-24T06:30:22.787Z,1020.74
2018-02-24T06:31:22.785Z,1020.67
2018-02-24T06:32:22.779Z,1020.72
2018-02-24T06:33:22.777Z,1020.73
2018-02-24T06:34:22.768Z,1020.74
2018-02-24T06:35:22.765Z,1020.73
2018-02-24T06:36:22.769Z,1020.75
2018-02-24T06:37:22.765Z,1020.71
2018-02-24T06:38:22.763Z,1020.76
2018-02-24T06:39:22.759Z,1020.76
2018-02-24T06:40:22.765Z,1020.79
2018-02-24T06:41:22.756Z,1020.78
2018-02-24T06:42:22.757Z,1020.80
2018-02-24T06:43:22.755Z,1020.76
2018-02-24T06:44:23.339Z,1020.80
2018-02-24T06:45:22.753Z,1020.77
2018-02-24T06:46:22.744Z,1020.78
2018-02-24T06:47:22.742Z,1020.79
2018-02-24T06:48:22.744Z,1020.80
2018-02-24T06:49:22.743Z,1020.83
2018-02-24T06:50:22.739Z,1020.82
2018-02-24T06:51:22.735Z,1020.86
2018-02-24T06:52:22.823Z,1020.84
2018-02-24T06:53:22.732Z,1020.89
2018-02-24T06:54:22.740Z,1020.87
2018-02-24T06:55:22.738Z,1020.82
2018-02-24T06:56:22.725Z,1020.84
2018-02-24T06:57:22.724Z,1020.87
2018-02-24T06:58:22.718Z,1020.88
2018-02-24T06:59:22.721Z,1020.87
2018-02-24T07:00:22.717Z,1020.91
2018-02-24T07:01:22.722Z,1020.95
2018-02-24T07:02:22.723Z,1020.98
2018-02-24T07:03:22.714Z,1020.98
2018-02-24T07:04:22.710Z,1021.03
2018-02-24T07:05:22.716Z,1021.00
2018-02-24T07:06:22.807Z,1021.00
2018-02-24T07:07:22.731Z,1021.05
2018-02-24T07:08:22.700Z,1021.12
2018-02-24T07:09:22.704Z,1021.08
2018-02-24T07:10:22.696Z,1021.08
2018-02-24T07:11:22.701Z,1021.12
2018-02-24T07:12:22.784Z,1021.08
2018-02-24T07:13:23.358Z,1021.13
2018-02-24T07:14:22.691Z,1021.13
2018-02-24T07:15:22.709Z,1021.13
2018-02-24T07:16:22.737Z,1021.16
2018-02-24T07:17:22.695Z,1021.18
2018-02-24T07:18:22.760Z,1021.14
2018-02-24T07:19:22.735Z,1021.14
2018-02-24T07:20:22.680Z,1021.19
2018-02-24T07:21:22.681Z,1021.12
2018-02-24T07:22:22.676Z,1021.11
2018-02-24T07:23:22.671Z,1021.13
2018-02-24T07:24:22.674Z,1021.15
2018-02-24T07:25:22.665Z,1021.18
2018-02-24T07:26:22.670Z,1021.20
2018-02-24T07:27:22.682Z,1021.21
2018-02-24T07:28:22.668Z,1021.20
2018-02-24T07:29:22.663Z,1021.18
2018-02-24T07:30:22.662Z,1021.18
2018-02-24T07:31:22.657Z,1021.17
2018-02-24T07:32:22.661Z,1021.16
2018-02-24T07:33:22.670Z,1021.18
2018-02-24T07:34:22.653Z,1021.23
2018-02-24T07:35:22.655Z,1021.23
2018-02-24T07:36:22.655Z,1021.19
2018-02-24T07:37:22.647Z,1021.21
2018-02-24T07:38:22.650Z,1021.21
2018-02-24T07:39:22.652Z,1021.23
2018-02-24T07:40:22.830Z,1021.23
2018-02-24T07:41:22.644Z,1021.23
2018-02-24T07:42:22.650Z,1021.27
2018-02-24T07:43:22.749Z,1021.27
2018-02-24T07:44:22.640Z,1021.28
2018-02-24T07:45:22.638Z,1021.26
2018-02-24T07:46:22.636Z,1021.29
2018-02-24T07:47:22.636Z,1021.28
2018-02-24T07:48:22.638Z,1021.31
2018-02-24T07:49:22.635Z,1021.41
2018-02-24T07:50:22.629Z,1021.33
2018-02-24T07:51:23.350Z,1021.36
2018-02-24T07:52:22.629Z,1021.34
2018-02-24T07:53:22.631Z,1021.34
2018-02-24T07:54:22.655Z,1021.40
2018-02-24T07:55:22.630Z,1021.38
2018-02-24T07:56:22.626Z,1021.53
2018-02-24T07:57:22.631Z,1021.38
2018-02-24T07:58:22.620Z,1021.30
2018-02-24T07:59:22.623Z,1021.38
2018-02-24T08:00:22.614Z,1021.49
2018-02-24T08:01:22.625Z,1021.73
2018-02-24T08:02:22.620Z,1021.90
2018-02-24T08:03:22.618Z,1022.09
2018-02-24T08:04:22.641Z,1022.11
2018-02-24T08:05:22.612Z,1022.17
2018-02-24T08:06:22.618Z,1022.24
2018-02-24T08:07:22.618Z,1022.08
2018-02-24T08:08:22.617Z,1022.05
2018-02-24T08:09:22.616Z,1022.05
2018-02-24T08:10:22.622Z,1022.05
2018-02-24T08:11:22.618Z,1022.12
2018-02-24T08:12:22.624Z,1022.16
2018-02-24T08:13:22.624Z,1022.30
2018-02-24T08:14:22.628Z,1022.33
2018-02-24T08:15:22.626Z,1022.31
2018-02-24T08:16:22.633Z,1022.25
2018-02-24T08:17:22.638Z,1022.21
2018-02-24T08:18:22.644Z,1022.24
2018-02-24T08:19:22.647Z,1022.31
2018-02-24T08:20:22.648Z,1022.43
2018-02-24T08:21:22.651Z,1022.46
2018-02-24T08:22:22.652Z,1022.51
2018-02-24T08:23:22.662Z,1022.41
2018-02-24T08:24:22.658Z,1022.42
2018-02-24T08:25:22.663Z,1022.43
2018-02-24T08:26:22.674Z,1022.46
2018-02-24T08:27:22.674Z,1022.48
2018-02-24T08:28:22.680Z,1022.47
2018-02-24T08:29:22.734Z,1022.52
2018-02-24T08:30:22.742Z,1022.49
2018-02-24T08:31:22.750Z,1022.55
2018-02-24T08:32:22.753Z,1022.49
2018-02-24T08:33:22.754Z,1022.50
2018-02-24T08:34:22.781Z,1022.58
2018-02-24T08:35:22.837Z,1022.49
2018-02-24T08:36:22.839Z,1022.57
2018-02-24T08:37:22.730Z,1022.58
2018-02-24T08:38:22.831Z,1022.71
2018-02-24T08:39:22.774Z,1022.59
2018-02-24T08:40:22.750Z,1022.64
2018-02-24T08:41:22.757Z,1022.78
2018-02-24T08:42:22.758Z,1022.67
2018-02-24T08:43:22.768Z,1022.74
2018-02-24T08:44:22.774Z,1022.70
2018-02-24T08:45:22.779Z,1022.74
2018-02-24T08:46:22.783Z,1022.74
2018-02-24T08:47:22.790Z,1022.83
2018-02-24T08:48:22.799Z,1022.94
2018-02-24T08:49:22.805Z,1022.75
2018-02-24T08:50:22.813Z,1022.83
2018-02-24T08:51:22.818Z,1022.80
2018-02-24T08:52:22.823Z,1022.81
2018-02-24T08:53:22.829Z,1022.80
2018-02-24T08:54:22.841Z,1022.66
2018-02-24T08:55:22.847Z,1022.75
2018-02-24T08:56:22.852Z,1022.81
2018-02-24T08:57:22.861Z,1022.82
2018-02-24T08:58:22.864Z,1022.88
2018-02-24T08:59:22.876Z,1022.92
2018-02-24T09:00:22.879Z,1022.93
2018-02-24T09:01:22.894Z,1023.02
2018-02-24T09:02:22.892Z,1023.02
2018-02-24T09:03:22.905Z,1023.11
2018-02-24T09:04:22.910Z,1023.00
2018-02-24T09:05:22.920Z,1023.00
2018-02-24T09:06:23.868Z,1023.17
2018-02-24T09:07:22.932Z,1023.08
2018-02-24T09:08:22.942Z,1023.07
2018-02-24T09:09:22.953Z,1023.11
2018-02-24T09:10:22.956Z,1023.15
2018-02-24T09:11:22.961Z,1022.96
2018-02-24T09:12:22.973Z,1023.06
2018-02-24T09:13:22.977Z,1023.07
2018-02-24T09:14:22.988Z,1023.06
2018-02-24T09:15:22.996Z,1023.05
2018-02-24T09:16:22.996Z,1022.90
2018-02-24T09:17:23.006Z,1022.96
2018-02-24T09:18:23.017Z,1023.04
2018-02-24T09:19:23.022Z,1023.16
2018-02-24T09:20:23.030Z,1022.98
2018-02-24T09:21:23.032Z,1022.89
2018-02-24T09:22:23.047Z,1022.96
2018-02-24T09:23:23.052Z,1023.01
2018-02-24T09:24:23.063Z,1022.90
2018-02-24T09:25:23.071Z,1023.02
2018-02-24T09:26:23.078Z,1023.06
2018-02-24T09:27:23.083Z,1022.94
2018-02-24T09:28:23.095Z,1023.01
2018-02-24T09:29:23.096Z,1023.08
2018-02-24T09:30:23.108Z,1023.05
2018-02-24T09:31:23.116Z,1023.19
2018-02-24T09:32:23.120Z,1022.98
2018-02-24T09:33:23.129Z,1023.07
2018-02-24T09:34:23.137Z,1023.07
2018-02-24T09:35:23.143Z,1023.08
2018-02-24T09:36:23.153Z,1023.15
2018-02-24T09:37:23.160Z,1023.11
2018-02-24T09:38:23.164Z,1023.09
2018-02-24T09:39:23.176Z,1022.97
2018-02-24T09:40:23.184Z,1023.06
2018-02-24T09:41:23.189Z,1023.15
2018-02-24T09:42:23.189Z,1023.08
2018-02-24T09:43:23.205Z,1022.99
2018-02-24T09:44:23.214Z,1023.03
2018-02-24T09:45:23.216Z,1023.06
2018-02-24T09:46:23.870Z,1023.04
2018-02-24T09:47:23.229Z,1023.01
2018-02-24T09:48:23.239Z,1023.00
2018-02-24T09:49:23.240Z,1022.97
2018-02-24T09:50:23.251Z,1022.95
2018-02-24T09:51:23.255Z,1023.03
2018-02-24T09:52:23.270Z,1022.96
2018-02-24T09:53:23.272Z,1022.96
2018-02-24T09:54:23.275Z,1023.06
2018-02-24T09:55:23.288Z,1023.01
2018-02-24T09:56:23.292Z,1022.92
2018-02-24T09:57:23.301Z,1022.89
2018-02-24T09:58:23.305Z,1023.04
2018-02-24T09:59:23.316Z,1022.98
2018-02-24T10:00:23.325Z,1023.10
2018-02-24T10:01:23.331Z,1023.08
2018-02-24T10:02:23.334Z,1023.00
2018-02-24T10:03:23.343Z,1022.74
2018-02-24T10:04:23.346Z,1022.73
2018-02-24T10:05:23.356Z,1022.63
2018-02-24T10:06:23.384Z,1022.62
2018-02-24T10:07:23.372Z,1022.69
2018-02-24T10:08:23.374Z,1022.81
2018-02-24T10:09:23.383Z,1022.76
2018-02-24T10:10:23.393Z,1022.76
2018-02-24T10:11:23.398Z,1022.67
2018-02-24T10:12:23.402Z,1022.73
2018-02-24T10:13:23.409Z,1022.63
2018-02-24T10:14:23.418Z,1022.69
2018-02-24T10:15:23.428Z,1022.69
2018-02-24T10:16:23.431Z,1022.68
2018-02-24T10:17:23.437Z,1022.92
2018-02-24T10:18:23.447Z,1022.82
2018-02-24T10:19:23.454Z,1023.09
2018-02-24T10:20:23.462Z,1023.13
2018-02-24T10:21:23.464Z,1023.13
2018-02-24T10:22:23.474Z,1023.06
2018-02-24T10:23:23.482Z,1023.09
2018-02-24T10:24:23.484Z,1023.03
2018-02-24T10:25:23.492Z,1022.99
2018-02-24T10:26:23.503Z,1022.95
2018-02-24T10:27:23.509Z,1022.70
2018-02-24T10:28:23.604Z,1022.70
2018-02-24T10:29:23.524Z,1022.92
2018-02-24T10:30:23.533Z,1022.90
2018-02-24T10:31:23.541Z,1022.79
2018-02-24T10:32:23.539Z,1022.60
2018-02-24T10:33:23.547Z,1022.69
2018-02-24T10:34:23.604Z,1022.58
2018-02-24T10:35:23.561Z,1022.56
2018-02-24T10:36:23.569Z,1022.58
2018-02-24T10:37:23.571Z,1022.66
2018-02-24T10:38:23.580Z,1022.50
2018-02-24T10:39:23.592Z,1022.39
2018-02-24T10:40:23.593Z,1023.00
2018-02-24T10:41:23.599Z,1022.42
2018-02-24T10:42:23.615Z,1022.39
2018-02-24T10:43:23.610Z,1022.49
2018-02-24T10:44:23.642Z,1022.56
2018-02-24T10:45:23.623Z,1022.56
2018-02-24T10:46:23.633Z,1022.68
2018-02-24T10:47:23.636Z,1022.52
2018-02-24T10:48:23.646Z,1022.50
2018-02-24T10:49:23.659Z,1022.51
2018-02-24T10:50:23.659Z,1022.51
2018-02-24T10:51:23.665Z,1022.59
2018-02-24T10:52:23.673Z,1022.32
2018-02-24T10:53:23.673Z,1022.36
2018-02-24T10:54:23.691Z,1022.57
2018-02-24T10:55:23.688Z,1022.85
2018-02-24T10:56:23.697Z,1022.52
2018-02-24T10:57:23.696Z,1022.31
2018-02-24T10:58:23.715Z,1022.39
2018-02-24T10:59:23.714Z,1022.45
2018-02-24T11:00:23.713Z,1022.54
2018-02-24T11:01:23.720Z,1022.48
2018-02-24T11:02:23.734Z,1022.59
2018-02-24T11:03:23.739Z,1022.40
2018-02-24T11:04:23.739Z,1022.17
2018-02-24T11:05:23.751Z,1022.36
2018-02-24T11:06:23.757Z,1022.24
2018-02-24T11:07:23.754Z,1022.37
2018-02-24T11:08:23.769Z,1022.25
2018-02-24T11:09:23.768Z,1022.09
2018-02-24T11:10:23.788Z,1022.21
2018-02-24T11:11:23.815Z,1022.09
2018-02-24T11:12:23.798Z,1022.16
2018-02-24T11:13:23.787Z,1022.11
2018-02-24T11:14:23.789Z,1022.15
2018-02-24T11:15:23.796Z,1022.05
2018-02-24T11:16:23.807Z,1022.04
2018-02-24T11:17:23.811Z,1022.08
2018-02-24T11:18:23.814Z,1022.17
2018-02-24T11:19:23.817Z,1022.08
2018-02-24T11:20:23.828Z,1022.23
2018-02-24T11:21:23.825Z,1022.30
2018-02-24T11:22:23.851Z,1022.21
2018-02-24T11:23:23.839Z,1022.15
2018-02-24T11:24:23.846Z,1022.14
2018-02-24T11:25:23.845Z,1021.95
2018-02-24T11:26:23.852Z,1021.98
2018-02-24T11:27:23.862Z,1022.16
2018-02-24T11:28:23.860Z,1022.15
2018-02-24T11:29:23.868Z,1022.15
2018-02-24T11:30:23.870Z,1022.24
2018-02-24T11:31:23.878Z,1022.21
2018-02-24T11:32:23.878Z,1022.17
2018-02-24T11:33:23.886Z,1021.96
2018-02-24T11:34:23.890Z,1022.12
2018-02-24T11:35:23.899Z,1022.13
2018-02-24T11:36:23.907Z,1022.15
2018-02-24T11:37:23.925Z,1022.10
2018-02-24T11:38:23.916Z,1022.06
2018-02-24T11:39:23.910Z,1022.08
2018-02-24T11:40:23.924Z,1022.07
2018-02-24T11:41:23.920Z,1022.16
2018-02-24T11:42:23.925Z,1022.02
2018-02-24T11:43:23.934Z,1022.11
2018-02-24T11:44:23.937Z,1022.09
2018-02-24T11:45:23.938Z,1022.14
2018-02-24T11:46:23.946Z,1022.11
2018-02-24T11:47:23.948Z,1022.05
2018-02-24T11:48:23.960Z,1022.06
2018-02-24T11:49:23.957Z,1021.99
2018-02-24T11:50:23.969Z,1022.07
2018-02-24T11:51:23.964Z,1022.04
2018-02-24T11:52:23.983Z,1021.97
2018-02-24T11:53:23.978Z,1022.03
2018-02-24T11:54:23.980Z,1022.12
2018-02-24T11:55:23.979Z,1022.09
2018-02-24T11:56:23.988Z,1021.95
2018-02-24T11:57:23.992Z,1021.89
2018-02-24T11:58:23.996Z,1021.90
2018-02-24T11:59:24.000Z,1021.89
2018-02-24T12:00:24.002Z,1021.89
2018-02-24T12:01:24.004Z,1021.82
2018-02-24T12:02:24.088Z,1021.76
2018-02-24T12:03:24.010Z,1021.77
2018-02-24T12:04:24.027Z,1021.76
2018-02-24T12:05:24.021Z,1021.93